Radway, Canada
Current Conditions -  °F | °C
As of 1:00 PM on Thursday 30 Oct 2014 (Local Time) from CYED Reporting Station
Overcast Overcast  
Wind Chill: 24°   Ceiling: 600
Heat Index: 34°   Visibility: 6mi
Dew Point: 30°   Wind: 15mph
Humidity: 87%   Direction: 140°SE
Pressure: 30.17"   Gusts: 21mph
Location:  54.06°N, 112.95°W
Report Text: CYED 301900Z AUTO 14013G18KT 6SM OVC006 01/M01 A3017 RMKSLP247
Loading
Personal Weather Stations






























Interactive Weather Map
Tropical Storm Tracking
New forecast layout! Learn more

10-Day Weather Forecast

Advertisements
Track Severe Weather on mobile